createdAt,value
2017-04-24T07:57:24.422Z,1010.68
2017-04-24T07:58:33.045Z,1010.62
2017-04-24T07:59:41.667Z,1010.67
2017-04-24T08:00:50.603Z,1010.61
2017-04-24T08:01:59.226Z,1010.69
2017-04-24T08:03:07.847Z,1010.69
2017-04-24T08:04:16.479Z,1010.61
2017-04-24T08:05:25.111Z,1010.57
2017-04-24T08:06:33.740Z,1010.56
2017-04-24T08:07:42.365Z,1010.6
2017-04-24T08:08:51.020Z,1010.55
2017-04-24T08:09:59.650Z,1010.53
2017-04-24T08:11:08.282Z,1010.55
2017-04-24T08:12:16.908Z,1010.57
2017-04-24T08:13:25.534Z,1010.53
2017-04-24T08:14:34.610Z,1010.52
2017-04-24T08:15:43.237Z,1010.52
2017-04-24T08:16:52.168Z,1010.52
2017-04-24T08:18:00.797Z,1010.51
2017-04-24T08:19:09.733Z,1010.55
2017-04-24T08:20:18.371Z,1010.46
2017-04-24T08:21:26.996Z,1010.47
2017-04-24T08:22:35.963Z,1010.45
2017-04-24T08:23:44.894Z,1010.46
2017-04-24T08:24:53.538Z,1010.52
2017-04-24T08:26:02.479Z,1010.41
2017-04-24T08:27:11.115Z,1010.47
2017-04-24T08:28:19.742Z,1010.37
2017-04-24T08:29:28.379Z,1010.37
2017-04-24T08:30:37.010Z,1010.44
2017-04-24T08:31:45.639Z,1010.36
2017-04-24T08:32:54.266Z,1010.39
2017-04-24T08:34:02.897Z,1010.3
2017-04-24T08:35:11.530Z,1010.34
2017-04-24T08:36:20.167Z,1010.34
2017-04-24T08:37:28.796Z,1010.27
2017-04-24T08:38:37.737Z,1010.26
2017-04-24T08:39:46.373Z,1010.26
2017-04-24T08:40:55.004Z,1010.25
2017-04-24T08:42:03.633Z,1010.22
2017-04-24T08:43:12.276Z,1010.19
2017-04-24T08:44:20.915Z,1010.18
2017-04-24T08:45:29.550Z,1010.22
2017-04-24T08:46:38.493Z,1010.22
2017-04-24T08:47:47.429Z,1010.14
2017-04-24T08:48:56.069Z,1010.19
2017-04-24T08:50:04.720Z,1010.13
2017-04-24T08:51:13.369Z,1010.13
2017-04-24T08:52:21.997Z,1010.14
2017-04-24T08:53:30.621Z,1010.07
2017-04-24T08:54:39.258Z,1010.04
2017-04-24T08:55:47.886Z,1010.02
2017-04-24T08:56:56.537Z,1010.11
2017-04-24T08:58:05.163Z,1010.05
2017-04-24T08:59:14.420Z,1010.13
2017-04-24T09:00:23.060Z,1010.07
2017-04-24T09:01:31.689Z,1010.07
2017-04-24T09:02:40.322Z,1009.95
2017-04-24T09:03:48.959Z,1009.92
2017-04-24T09:04:57.590Z,1010.01
2017-04-24T09:06:06.219Z,1009.93
2017-04-24T09:07:14.855Z,1009.97
2017-04-24T09:08:23.796Z,1010.01
2017-04-24T09:09:32.733Z,1010
2017-04-24T09:10:41.368Z,1010.02
2017-04-24T09:11:50.310Z,1009.89
2017-04-24T09:12:59.247Z,1009.88
2017-04-24T09:14:07.904Z,1009.91
2017-04-24T09:15:16.543Z,1009.94
2017-04-24T09:16:25.173Z,1009.87
2017-04-24T09:17:33.803Z,1009.95
2017-04-24T09:18:42.438Z,1009.73
2017-04-24T09:19:51.418Z,1009.76
2017-04-24T09:21:00.055Z,1009.72
2017-04-24T09:22:08.993Z,1009.69
2017-04-24T09:23:17.622Z,1009.66
2017-04-24T09:24:26.278Z,1009.57
2017-04-24T09:25:34.918Z,1009.61
2017-04-24T09:26:43.550Z,1009.62
2017-04-24T09:27:52.176Z,1009.63
2017-04-24T09:29:01.132Z,1009.56
2017-04-24T09:30:09.777Z,1009.48
2017-04-24T09:31:18.404Z,1009.55
2017-04-24T09:32:27.032Z,1009.5
2017-04-24T09:33:35.662Z,1009.64
2017-04-24T09:34:44.294Z,1009.54
2017-04-24T09:35:52.927Z,1009.5
2017-04-24T09:37:01.560Z,1009.45
2017-04-24T09:38:10.192Z,1009.52
2017-04-24T09:39:18.836Z,1009.51
2017-04-24T09:40:27.469Z,1009.45
2017-04-24T09:41:36.411Z,1009.54
2017-04-24T09:42:45.039Z,1009.54
2017-04-24T09:43:53.676Z,1009.54
2017-04-24T09:45:02.312Z,1009.45
2017-04-24T09:46:10.960Z,1009.4
2017-04-24T09:47:19.593Z,1009.48
2017-04-24T09:48:28.225Z,1009.38
2017-04-24T09:49:36.856Z,1009.4
2017-04-24T09:50:45.487Z,1009.33
2017-04-24T09:51:54.125Z,1009.39
2017-04-24T09:53:02.755Z,1009.43
2017-04-24T09:54:11.697Z,1009.35
2017-04-24T09:55:20.335Z,1009.3
2017-04-24T09:56:28.969Z,1009.32
2017-04-24T09:57:37.597Z,1009.26
2017-04-24T09:58:46.234Z,1009.25
2017-04-24T09:59:54.865Z,1009.19
2017-04-24T10:01:03.492Z,1009.2
2017-04-24T10:02:12.126Z,1009.21
2017-04-24T10:03:21.363Z,1009.22
2017-04-24T10:04:30.000Z,1009.23
2017-04-24T10:05:38.952Z,1009.23
2017-04-24T10:06:47.585Z,1009.19
2017-04-24T10:07:56.216Z,1009.2
2017-04-24T10:09:04.849Z,1009.15
2017-04-24T10:10:13.491Z,1009.16
2017-04-24T10:11:22.153Z,1009.17
2017-04-24T10:12:30.788Z,1009.03
2017-04-24T10:13:39.423Z,1009.07
2017-04-24T10:14:48.069Z,1009.13
2017-04-24T10:15:57.317Z,1009.14
2017-04-24T10:17:05.956Z,1009.08
2017-04-24T10:18:14.587Z,1009.06
2017-04-24T10:19:23.528Z,1009.1
2017-04-24T10:20:32.163Z,1009.01
2017-04-24T10:21:40.799Z,1009.04
2017-04-24T10:22:49.434Z,1009.05
2017-04-24T10:23:58.068Z,1009.05
2017-04-24T10:25:06.699Z,1009.05
2017-04-24T10:26:15.337Z,1009
2017-04-24T10:27:23.969Z,1009.03
2017-04-24T10:28:32.598Z,1009.13
2017-04-24T10:29:41.540Z,1009.02
2017-04-24T10:30:50.187Z,1009.12
2017-04-24T10:31:58.831Z,1008.97
2017-04-24T10:33:07.472Z,1009.06
2017-04-24T10:34:16.421Z,1009.01
2017-04-24T10:35:25.064Z,1009
2017-04-24T10:36:33.698Z,1008.94
2017-04-24T10:37:42.327Z,1008.92
2017-04-24T10:38:50.968Z,1008.93
2017-04-24T10:39:59.606Z,1008.93
2017-04-24T10:41:08.244Z,1008.91
2017-04-24T10:42:16.880Z,1008.76
2017-04-24T10:43:25.518Z,1008.76
2017-04-24T10:44:34.162Z,1008.82
2017-04-24T10:45:42.801Z,1008.78
2017-04-24T10:46:51.429Z,1008.82
2017-04-24T10:48:00.064Z,1008.82
2017-04-24T10:49:08.731Z,1008.75
2017-04-24T10:50:17.676Z,1008.69
2017-04-24T10:51:26.308Z,1008.63
2017-04-24T10:52:34.943Z,1008.72
2017-04-24T10:53:43.581Z,1008.58
2017-04-24T10:54:52.526Z,1008.69
2017-04-24T10:56:01.162Z,1008.7
2017-04-24T10:57:09.802Z,1008.62
2017-04-24T10:58:18.438Z,1008.6
2017-04-24T10:59:27.071Z,1008.67
2017-04-24T11:00:35.701Z,1008.59
2017-04-24T11:01:44.334Z,1008.59
2017-04-24T11:02:52.963Z,1008.53
2017-04-24T11:04:01.603Z,1008.57
2017-04-24T11:05:10.251Z,1008.52
2017-04-24T11:06:18.885Z,1008.52
2017-04-24T11:07:27.521Z,1008.49
2017-04-24T11:08:36.165Z,1008.38
2017-04-24T11:09:44.805Z,1008.4
2017-04-24T11:10:53.443Z,1008.44
2017-04-24T11:12:02.094Z,1008.48
2017-04-24T11:13:10.720Z,1008.4
2017-04-24T11:14:19.662Z,1008.42
2017-04-24T11:15:28.637Z,1008.43
2017-04-24T11:16:37.289Z,1008.42
2017-04-24T11:17:45.923Z,1008.4
2017-04-24T11:18:54.556Z,1008.34
2017-04-24T11:20:03.188Z,1008.35
2017-04-24T11:21:11.825Z,1008.25
2017-04-24T11:22:20.459Z,1008.24
2017-04-24T11:23:29.096Z,1008.23
2017-04-24T11:24:37.726Z,1008.21
2017-04-24T11:25:46.671Z,1008.21
2017-04-24T11:26:55.614Z,1008.25
2017-04-24T11:28:04.262Z,1008.15
2017-04-24T11:29:12.905Z,1008.16
2017-04-24T11:30:21.535Z,1008.15
2017-04-24T11:31:30.169Z,1008.03
2017-04-24T11:32:38.800Z,1008.06
2017-04-24T11:33:47.436Z,1008.08
2017-04-24T11:34:56.373Z,1008.06
2017-04-24T11:36:05.007Z,1007.99
2017-04-24T11:37:13.641Z,1008.05
2017-04-24T11:38:22.275Z,1007.95
2017-04-24T11:39:31.221Z,1007.93
2017-04-24T11:40:40.162Z,1007.98
2017-04-24T11:41:48.794Z,1007.94
2017-04-24T11:42:57.426Z,1007.9
2017-04-24T11:44:06.369Z,1007.92
2017-04-24T11:45:15.315Z,1007.89
2017-04-24T11:46:23.951Z,1007.87
2017-04-24T11:47:32.894Z,1007.85
2017-04-24T11:48:41.535Z,1007.81
2017-04-24T11:49:50.495Z,1007.77
2017-04-24T11:50:59.131Z,1007.72
2017-04-24T11:52:07.767Z,1007.76
2017-04-24T11:53:16.399Z,1007.67
2017-04-24T11:54:25.348Z,1007.83
2017-04-24T11:55:33.983Z,1007.85
2017-04-24T11:56:42.622Z,1007.7
2017-04-24T11:57:51.261Z,1007.76
2017-04-24T11:58:59.900Z,1007.63
2017-04-24T12:00:08.538Z,1007.62
2017-04-24T12:01:17.164Z,1007.58
2017-04-24T12:02:25.795Z,1007.56
2017-04-24T12:03:34.446Z,1007.59
2017-04-24T12:04:43.094Z,1007.7
2017-04-24T12:05:51.759Z,1007.67
2017-04-24T12:07:00.395Z,1007.7
2017-04-24T12:08:09.052Z,1007.66
2017-04-24T12:09:17.996Z,1007.61
2017-04-24T12:10:27.255Z,1007.62
2017-04-24T12:11:35.891Z,1007.58
2017-04-24T12:12:44.538Z,1007.58
2017-04-24T12:13:53.485Z,1007.55
2017-04-24T12:15:02.121Z,1007.6
2017-04-24T12:16:10.752Z,1007.57
2017-04-24T12:17:19.385Z,1007.57
2017-04-24T12:18:28.021Z,1007.59
2017-04-24T12:19:36.666Z,1007.52
2017-04-24T12:20:45.310Z,1007.52
2017-04-24T12:21:53.948Z,1007.55
2017-04-24T12:23:02.588Z,1007.56
2017-04-24T12:24:11.219Z,1007.48
2017-04-24T12:25:20.163Z,1007.47
2017-04-24T12:26:28.794Z,1007.45
2017-04-24T12:27:37.736Z,1007.35
2017-04-24T12:28:46.386Z,1007.37
2017-04-24T12:29:55.022Z,1007.37
2017-04-24T12:31:04.214Z,1007.37
2017-04-24T12:32:12.849Z,1007.37
2017-04-24T12:33:21.795Z,1007.28
2017-04-24T12:34:30.437Z,1007.25
2017-04-24T12:35:39.074Z,1007.21
2017-04-24T12:36:47.708Z,1007.26
2017-04-24T12:37:56.342Z,1007.18
2017-04-24T12:39:04.980Z,1007.25
2017-04-24T12:40:13.620Z,1007.21
2017-04-24T12:41:22.262Z,1007.18
2017-04-24T12:42:30.898Z,1007.2
2017-04-24T12:43:39.840Z,1007.22
2017-04-24T12:44:48.476Z,1007.12
2017-04-24T12:45:57.117Z,1007.13
